createdAt,value
2022-08-04T00:00:31.211Z,72426.75
2022-08-04T00:01:05.843Z,72422.75
2022-08-04T00:01:44.373Z,72424.75
2022-08-04T00:02:22.242Z,72426.75
2022-08-04T00:03:02.736Z,72426.75
2022-08-04T00:03:45.975Z,72430.75
2022-08-04T00:04:25.614Z,72426.75
2022-08-04T00:05:01.834Z,72426.75
2022-08-04T00:05:48.476Z,72426.75
2022-08-04T00:06:29.342Z,72422.75
2022-08-04T00:07:10.811Z,72426.75
2022-08-04T00:07:51.522Z,72426.75
2022-08-04T00:08:38.063Z,72426.75
2022-08-04T00:09:14.606Z,72420.78
2022-08-04T00:09:50.630Z,72422.75
2022-08-04T00:10:26.140Z,72420.78
2022-08-04T00:11:00.559Z,72428.75
2022-08-04T00:11:34.089Z,72420.78
2022-08-04T00:12:10.482Z,72426.75
2022-08-04T00:12:45.542Z,72424.75
2022-08-04T00:13:24.377Z,72430.75
2022-08-04T00:14:03.931Z,72422.75
2022-08-04T00:14:38.867Z,72424.75
2022-08-04T00:15:15.069Z,72426.75
2022-08-04T00:15:55.206Z,72424.75
2022-08-04T00:16:32.729Z,72418.78
2022-08-04T00:17:07.618Z,72418.78
2022-08-04T00:17:44.733Z,72426.75
2022-08-04T00:18:19.318Z,72414.78
2022-08-04T00:18:56.530Z,72418.78
2022-08-04T00:19:34.891Z,72418.78
2022-08-04T00:20:09.911Z,72418.78
2022-08-04T00:20:42.787Z,72422.75
2022-08-04T00:21:18.698Z,72422.75
2022-08-04T00:21:54.175Z,72418.78
2022-08-04T00:22:31.120Z,72422.75
2022-08-04T00:23:03.640Z,72418.78
2022-08-04T00:24:11.136Z,72418.78
2022-08-04T00:24:33.364Z,72418.78
2022-08-04T00:25:06.758Z,72422.75
2022-08-04T00:25:40.743Z,72416.78
2022-08-04T00:26:15.734Z,72422.75
2022-08-04T00:26:48.581Z,72418.78
2022-08-04T00:27:21.092Z,72422.75
2022-08-04T00:27:56.380Z,72420.78
2022-08-04T00:28:31.447Z,72418.78
2022-08-04T00:29:03.910Z,72420.78
2022-08-04T00:29:38.986Z,72418.78
2022-08-04T00:30:11.702Z,72420.78
2022-08-04T00:30:44.164Z,72422.75
2022-08-04T00:31:19.895Z,72426.75
2022-08-04T00:32:13.242Z,72418.78
2022-08-04T00:32:48.596Z,72414.78
2022-08-04T00:33:21.391Z,72420.78
2022-08-04T00:33:54.014Z,72418.78
2022-08-04T00:34:30.796Z,72418.78
2022-08-04T00:35:03.894Z,72418.78
2022-08-04T00:35:36.887Z,72416.78
2022-08-04T00:36:12.434Z,72418.78
2022-08-04T00:36:45.036Z,72418.78
2022-08-04T00:37:17.898Z,72418.78
2022-08-04T00:37:52.937Z,72418.78
2022-08-04T00:38:25.955Z,72418.78
2022-08-04T00:38:59.296Z,72414.78
2022-08-04T00:39:35.249Z,72414.78
2022-08-04T00:40:17.063Z,72414.78
2022-08-04T00:41:04.172Z,72412.78
2022-08-04T00:41:55.498Z,72410.78
2022-08-04T00:42:58.425Z,72418.78
2022-08-04T00:43:38.476Z,72412.78
2022-08-04T00:44:23.729Z,72414.78
2022-08-04T00:45:08.175Z,72414.78
2022-08-04T00:46:17.017Z,72410.78
2022-08-04T00:47:05.227Z,72418.78
2022-08-04T00:47:59.256Z,72418.78
2022-08-04T00:48:42.393Z,72418.78
2022-08-04T00:49:33.669Z,72418.78
2022-08-04T00:50:11.863Z,72420.78
2022-08-04T00:50:46.394Z,72418.78
2022-08-04T00:51:32.027Z,72422.75
2022-08-04T00:52:31.715Z,72418.78
2022-08-04T00:53:09.617Z,72416.78
2022-08-04T00:53:58.526Z,72420.78
2022-08-04T00:54:46.979Z,72422.75
2022-08-04T00:55:32.472Z,72418.78
2022-08-04T00:56:35.388Z,72418.78
2022-08-04T00:57:29.962Z,72420.78
2022-08-04T00:58:36.443Z,72414.78
2022-08-04T00:59:24.715Z,72418.78
2022-08-04T01:00:08.607Z,72418.78
2022-08-04T01:00:45.941Z,72420.78
2022-08-04T01:01:41.115Z,72418.78
2022-08-04T01:02:32.514Z,72418.78
2022-08-04T01:03:10.914Z,72418.78
2022-08-04T01:03:51.034Z,72414.78
2022-08-04T01:04:32.862Z,72418.78
2022-08-04T01:05:07.095Z,72414.78
2022-08-04T01:05:48.686Z,72410.78
2022-08-04T01:06:32.788Z,72418.78
2022-08-04T01:07:17.506Z,72416.78
2022-08-04T01:08:01.843Z,72418.78
2022-08-04T01:08:53.320Z,72418.78
2022-08-04T01:09:31.759Z,72420.78
2022-08-04T01:10:08.006Z,72418.78
2022-08-04T01:10:51.668Z,72418.78
2022-08-04T01:11:32.656Z,72418.78
2022-08-04T01:13:00.255Z,72418.78
2022-08-04T01:13:47.098Z,72418.78
2022-08-04T01:14:32.983Z,72418.78
2022-08-04T01:15:08.106Z,72418.78
2022-08-04T01:16:00.115Z,72422.75
2022-08-04T01:16:35.947Z,72420.78
2022-08-04T01:17:21.653Z,72418.78
2022-08-04T01:18:05.562Z,72422.75
2022-08-04T01:18:46.967Z,72420.78
2022-08-04T01:19:37.709Z,72426.75
2022-08-04T01:20:11.672Z,72422.75
2022-08-04T01:20:54.120Z,72426.75
2022-08-04T01:22:04.528Z,72422.75
2022-08-04T01:23:09.379Z,72420.78
2022-08-04T01:23:53.991Z,72422.75
2022-08-04T01:24:44.811Z,72422.75
2022-08-04T01:25:34.087Z,72422.75
2022-08-04T01:26:57.856Z,72422.75
2022-08-04T01:27:47.830Z,72426.75
2022-08-04T01:28:30.175Z,72426.75
2022-08-04T01:29:15.028Z,72424.75
2022-08-04T01:29:51.071Z,72424.75
2022-08-04T01:30:28.215Z,72426.75
2022-08-04T01:31:12.932Z,72422.75
2022-08-04T01:31:55.460Z,72422.75
2022-08-04T01:32:35.393Z,72428.75
2022-08-04T01:33:10.024Z,72422.75
2022-08-04T01:34:02.974Z,72426.75
2022-08-04T01:34:48.975Z,72426.75
2022-08-04T01:35:46.636Z,72418.78
2022-08-04T01:36:21.197Z,72422.75
2022-08-04T01:36:59.869Z,72422.75
2022-08-04T01:37:44.626Z,72422.75
2022-08-04T01:38:22.492Z,72422.75
2022-08-04T01:38:55.271Z,72418.78
2022-08-04T01:39:42.907Z,72418.78
2022-08-04T01:40:19.364Z,72418.78
2022-08-04T01:40:54.007Z,72418.78
2022-08-04T01:41:32.860Z,72422.75
2022-08-04T01:42:09.696Z,72414.78
2022-08-04T01:42:43.637Z,72422.75
2022-08-04T01:43:19.507Z,72420.78
2022-08-04T01:43:54.470Z,72416.78
2022-08-04T01:44:31.906Z,72422.75
2022-08-04T01:45:09.608Z,72422.75
2022-08-04T01:45:42.172Z,72420.78
2022-08-04T01:46:16.909Z,72422.75
2022-08-04T01:46:50.692Z,72418.78
2022-08-04T01:47:25.930Z,72414.78
2022-08-04T01:47:58.750Z,72418.78
2022-08-04T01:48:31.460Z,72414.78
2022-08-04T01:49:06.987Z,72418.78
2022-08-04T01:49:41.080Z,72418.78
2022-08-04T01:50:14.439Z,72418.78
2022-08-04T01:50:53.014Z,72420.78
2022-08-04T01:51:25.971Z,72418.78
2022-08-04T01:51:58.730Z,72420.78
2022-08-04T01:52:35.392Z,72414.78
2022-08-04T01:53:08.035Z,72416.78
2022-08-04T01:53:42.056Z,72418.78
2022-08-04T01:54:16.459Z,72422.75
2022-08-04T01:54:53.900Z,72418.78
2022-08-04T01:55:55.275Z,72422.75
2022-08-04T01:56:24.562Z,72424.75
2022-08-04T01:56:58.574Z,72424.75
2022-08-04T01:57:37.882Z,72418.78
2022-08-04T01:58:14.419Z,72420.78
2022-08-04T01:58:46.944Z,72426.75
2022-08-04T01:59:21.058Z,72422.75
2022-08-04T02:00:01.366Z,72424.75
2022-08-04T02:00:38.322Z,72420.78
2022-08-04T02:01:14.866Z,72422.75
2022-08-04T02:01:47.649Z,72422.75
2022-08-04T02:02:23.034Z,72426.75
2022-08-04T02:02:59.177Z,72426.75
2022-08-04T02:04:22.029Z,72426.75
2022-08-04T02:04:24.664Z,72426.75
2022-08-04T02:04:59.700Z,72424.75
2022-08-04T02:06:03.991Z,72430.75
2022-08-04T02:06:32.129Z,72430.75
2022-08-04T02:07:19.931Z,72428.75
2022-08-04T02:08:04.578Z,72430.75
2022-08-04T02:08:47.657Z,72430.75
2022-08-04T02:09:24.594Z,72430.75
2022-08-04T02:10:05.066Z,72430.75
2022-08-04T02:10:53.401Z,72434.75
2022-08-04T02:11:25.732Z,72428.75
2022-08-04T02:12:04.312Z,72434.75
2022-08-04T02:12:56.740Z,72432.75
2022-08-04T02:13:35.556Z,72430.75
2022-08-04T02:14:37.964Z,72432.75
2022-08-04T02:15:16.394Z,72434.75
2022-08-04T02:15:59.058Z,72434.75
2022-08-04T02:16:39.003Z,72436.72
2022-08-04T02:17:12.932Z,72430.75
2022-08-04T02:17:55.172Z,72426.75
2022-08-04T02:18:32.565Z,72430.75
2022-08-04T02:19:17.623Z,72426.75
2022-08-04T02:20:16.398Z,72426.75
2022-08-04T02:20:52.555Z,72422.75
2022-08-04T02:21:26.450Z,72422.75
2022-08-04T02:22:06.859Z,72418.78
2022-08-04T02:22:45.970Z,72422.75
2022-08-04T02:23:25.698Z,72418.78
2022-08-04T02:24:02.359Z,72418.78
2022-08-04T02:24:43.615Z,72422.75
2022-08-04T02:25:19.930Z,72418.78
2022-08-04T02:26:00.065Z,72422.75
2022-08-04T02:26:34.536Z,72418.78
2022-08-04T02:27:07.441Z,72416.78
2022-08-04T02:27:59.090Z,72422.75
2022-08-04T02:28:40.582Z,72426.75
2022-08-04T02:29:20.324Z,72420.78
2022-08-04T02:29:57.398Z,72428.75
2022-08-04T02:30:37.614Z,72422.75
2022-08-04T02:31:20.056Z,72422.75
2022-08-04T02:31:57.952Z,72418.78
2022-08-04T02:32:31.422Z,72418.78
2022-08-04T02:33:07.638Z,72422.75
2022-08-04T02:33:43.323Z,72422.75
2022-08-04T02:34:22.492Z,72418.78
2022-08-04T02:35:01.402Z,72420.78
2022-08-04T02:35:36.971Z,72426.75
2022-08-04T02:36:14.210Z,72418.78
2022-08-04T02:36:48.884Z,72422.75
2022-08-04T02:37:22.277Z,72420.78
2022-08-04T02:38:04.611Z,72422.75
2022-08-04T02:38:55.206Z,72418.78
2022-08-04T02:39:48.515Z,72414.78
2022-08-04T02:40:22.283Z,72414.78
2022-08-04T02:40:56.427Z,72414.78
2022-08-04T02:41:35.397Z,72410.78
2022-08-04T02:42:07.921Z,72410.78
2022-08-04T02:42:42.674Z,72410.78
2022-08-04T02:43:18.646Z,72410.78
2022-08-04T02:44:11.219Z,72412.78
2022-08-04T02:44:46.723Z,72414.78
2022-08-04T02:45:20.033Z,72410.78
2022-08-04T02:45:56.862Z,72406.81
2022-08-04T02:46:32.766Z,72410.78
2022-08-04T02:47:06.211Z,72406.81
2022-08-04T02:48:08.171Z,72410.78
2022-08-04T02:48:35.682Z,72410.78
2022-08-04T02:49:09.665Z,72406.81
2022-08-04T02:49:45.581Z,72412.78
2022-08-04T02:50:28.553Z,72414.78
2022-08-04T02:51:01.790Z,72410.78
2022-08-04T02:51:44.594Z,72410.78
2022-08-04T02:52:17.266Z,72408.78
2022-08-04T02:52:50.947Z,72414.78
2022-08-04T02:53:26.214Z,72414.78
2022-08-04T02:54:00.198Z,72410.78
2022-08-04T02:54:34.736Z,72418.78
2022-08-04T02:55:10.701Z,72414.78
2022-08-04T02:55:51.046Z,72406.81
2022-08-04T02:56:31.172Z,72410.78
2022-08-04T02:57:08.219Z,72410.78
2022-08-04T02:57:41.250Z,72406.81
2022-08-04T02:58:15.743Z,72410.78
2022-08-04T02:58:55.266Z,72412.78
2022-08-04T02:59:29.897Z,72412.78
2022-08-04T03:00:11.891Z,72410.78
2022-08-04T03:00:49.583Z,72406.81
2022-08-04T03:01:25.431Z,72408.78
2022-08-04T03:02:01.669Z,72406.81
2022-08-04T03:02:42.843Z,72408.78
2022-08-04T03:03:22.858Z,72410.78
2022-08-04T03:04:26.294Z,72406.81
2022-08-04T03:05:04.312Z,72406.81
2022-08-04T03:05:51.884Z,72408.78
2022-08-04T03:06:57.239Z,72412.78
2022-08-04T03:08:04.400Z,72414.78
2022-08-04T03:09:18.487Z,72410.78
2022-08-04T03:10:30.440Z,72406.81
2022-08-04T03:11:41.672Z,72410.78
2022-08-04T03:12:33.227Z,72404.81
2022-08-04T03:13:31.562Z,72406.81
2022-08-04T03:14:25.583Z,72406.81
2022-08-04T03:15:27.847Z,72406.81
2022-08-04T03:16:31.876Z,72406.81
2022-08-04T03:17:52.614Z,72410.78
2022-08-04T03:19:00.053Z,72408.78
2022-08-04T03:20:00.536Z,72410.78
2022-08-04T03:20:59.772Z,72414.78
2022-08-04T03:21:57.064Z,72412.78
2022-08-04T03:23:14.174Z,72414.78
2022-08-04T03:24:12.919Z,72414.78
2022-08-04T03:25:28.262Z,72410.78
2022-08-04T03:26:23.814Z,72414.78
2022-08-04T03:27:15.431Z,72412.78
2022-08-04T03:28:07.486Z,72422.75
2022-08-04T03:29:00.750Z,72414.78
2022-08-04T03:30:06.835Z,72414.78
2022-08-04T03:30:58.579Z,72418.78
2022-08-04T03:31:54.617Z,72418.78
2022-08-04T03:32:59.410Z,72418.78
2022-08-04T03:33:48.587Z,72414.78
2022-08-04T03:34:41.169Z,72418.78
2022-08-04T03:35:58.360Z,72414.78
2022-08-04T03:36:56.677Z,72410.78
2022-08-04T03:37:44.975Z,72414.78
2022-08-04T03:38:42.695Z,72416.78
2022-08-04T03:39:54.504Z,72414.78
2022-08-04T03:40:56.463Z,72420.78
2022-08-04T03:41:51.774Z,72414.78
2022-08-04T03:43:05.579Z,72414.78
2022-08-04T03:43:58.278Z,72418.78
2022-08-04T03:45:04.990Z,72416.78
2022-08-04T03:46:34.875Z,72420.78
2022-08-04T03:47:31.742Z,72418.78
2022-08-04T03:48:28.724Z,72418.78
2022-08-04T03:49:44.110Z,72418.78
2022-08-04T03:50:41.669Z,72416.78
2022-08-04T03:51:36.270Z,72418.78
2022-08-04T03:52:29.343Z,72422.75
2022-08-04T03:53:24.659Z,72418.78
2022-08-04T03:54:16.431Z,72414.78
2022-08-04T03:55:20.818Z,72418.78
2022-08-04T03:56:34.503Z,72418.78
2022-08-04T03:57:28.430Z,72418.78
2022-08-04T03:58:49.211Z,72414.78
2022-08-04T03:59:59.603Z,72418.78
2022-08-04T04:00:42.600Z,72422.75
2022-08-04T04:02:01.484Z,72422.75
2022-08-04T04:02:58.299Z,72418.78
2022-08-04T04:03:59.975Z,72414.78
2022-08-04T04:04:56.454Z,72412.78
2022-08-04T04:06:02.187Z,72414.78
2022-08-04T04:07:17.560Z,72410.78
2022-08-04T04:08:22.175Z,72414.78
2022-08-04T04:09:24.170Z,72410.78
2022-08-04T04:10:17.242Z,72410.78
2022-08-04T04:11:27.422Z,72414.78
2022-08-04T04:12:25.367Z,72414.78
2022-08-04T04:13:18.539Z,72412.78
2022-08-04T04:14:00.035Z,72410.78
2022-08-04T04:14:58.421Z,72414.78
2022-08-04T04:15:50.195Z,72416.78
2022-08-04T04:16:39.450Z,72412.78
2022-08-04T04:17:31.962Z,72416.78
2022-08-04T04:18:42.531Z,72414.78
2022-08-04T04:19:31.537Z,72416.78
2022-08-04T04:20:35.946Z,72416.78
2022-08-04T04:21:22.533Z,72418.78
2022-08-04T04:22:30.070Z,72418.78
2022-08-04T04:23:14.042Z,72414.78
2022-08-04T04:24:04.703Z,72416.78
2022-08-04T04:24:59.895Z,72418.78
2022-08-04T04:25:41.707Z,72414.78
2022-08-04T04:26:33.251Z,72410.78
2022-08-04T04:27:14.728Z,72418.78
2022-08-04T04:28:43.647Z,72418.78
2022-08-04T04:29:09.587Z,72420.78
2022-08-04T04:30:06.845Z,72418.78
2022-08-04T04:30:50.003Z,72422.75
2022-08-04T04:31:34.620Z,72418.78
2022-08-04T04:32:22.987Z,72422.75
2022-08-04T04:33:21.347Z,72422.75
2022-08-04T04:34:02.517Z,72422.75
2022-08-04T04:34:49.933Z,72422.75
2022-08-04T04:35:34.368Z,72422.75
2022-08-04T04:36:15.512Z,72422.75
2022-08-04T04:37:04.354Z,72424.75
2022-08-04T04:38:00.598Z,72426.75
2022-08-04T04:38:45.940Z,72430.75
2022-08-04T04:39:31.155Z,72428.75
2022-08-04T04:40:18.577Z,72424.75
2022-08-04T04:41:05.987Z,72426.75
2022-08-04T04:42:05.479Z,72426.75
2022-08-04T04:43:01.656Z,72428.75
2022-08-04T04:43:54.638Z,72422.75
2022-08-04T04:44:56.922Z,72434.75
2022-08-04T04:45:32.161Z,72430.75
2022-08-04T04:46:11.081Z,72434.75
2022-08-04T04:46:54.515Z,72434.75
2022-08-04T04:47:43.056Z,72434.75
2022-08-04T04:48:36.851Z,72436.72
2022-08-04T04:49:20.828Z,72432.75
2022-08-04T04:49:59.918Z,72432.75
2022-08-04T04:50:44.134Z,72434.75
2022-08-04T04:51:21.043Z,72434.75
2022-08-04T04:52:04.069Z,72430.75
2022-08-04T04:52:41.039Z,72430.75
2022-08-04T04:53:20.811Z,72434.75
2022-08-04T04:54:00.851Z,72434.75
2022-08-04T04:54:35.507Z,72438.72
2022-08-04T04:55:14.711Z,72436.72
2022-08-04T04:56:02.774Z,72438.72
2022-08-04T04:56:41.567Z,72442.72
2022-08-04T04:57:17.784Z,72442.72
2022-08-04T04:57:55.377Z,72440.72
2022-08-04T04:58:29.698Z,72438.72
2022-08-04T04:59:03.517Z,72434.75
2022-08-04T04:59:42.421Z,72426.75
2022-08-04T05:00:15.801Z,72424.75
2022-08-04T05:01:11.389Z,72420.78
2022-08-04T05:02:07.799Z,72412.78
2022-08-04T05:03:15.364Z,72412.78
2022-08-04T05:04:09.576Z,72410.78
2022-08-04T05:05:04.674Z,72410.78
2022-08-04T05:06:07.668Z,72406.81
2022-08-04T05:06:54.854Z,72408.78
2022-08-04T05:07:53.229Z,72410.78
2022-08-04T05:08:46.855Z,72412.78
2022-08-04T05:09:32.781Z,72412.78
2022-08-04T05:10:17.518Z,72406.81
2022-08-04T05:11:08.311Z,72410.78
2022-08-04T05:11:55.283Z,72414.78
2022-08-04T05:14:31.786Z,72410.78
2022-08-04T05:14:38.963Z,72410.78
2022-08-04T05:14:46.972Z,72412.78
2022-08-04T05:15:25.619Z,72412.78
2022-08-04T05:16:02.012Z,72414.78
2022-08-04T05:16:40.420Z,72414.78
2022-08-04T05:17:17.808Z,72412.78
2022-08-04T05:17:55.788Z,72410.78
2022-08-04T05:18:31.418Z,72412.78
2022-08-04T05:19:18.445Z,72408.78
2022-08-04T05:20:02.117Z,72406.81
2022-08-04T05:20:38.802Z,72410.78
2022-08-04T05:21:21.890Z,72410.78
2022-08-04T05:22:04.714Z,72414.78
2022-08-04T05:22:40.019Z,72414.78
2022-08-04T05:23:16.811Z,72412.78
2022-08-04T05:23:54.113Z,72414.78
2022-08-04T05:24:28.394Z,72414.78
2022-08-04T05:25:08.027Z,72410.78
2022-08-04T05:25:58.595Z,72412.78
2022-08-04T05:26:35.646Z,72416.78
2022-08-04T05:27:20.821Z,72418.78
2022-08-04T05:28:01.045Z,72416.78
2022-08-04T05:28:39.607Z,72418.78
2022-08-04T05:29:17.342Z,72416.78
2022-08-04T05:29:53.771Z,72422.75
2022-08-04T05:30:31.392Z,72422.75
2022-08-04T05:31:07.282Z,72422.75
2022-08-04T05:31:42.052Z,72422.75
2022-08-04T05:32:18.302Z,72418.78
2022-08-04T05:32:59.223Z,72420.78
2022-08-04T05:33:37.862Z,72418.78
2022-08-04T05:34:14.778Z,72422.75
2022-08-04T05:34:55.623Z,72414.78
2022-08-04T05:35:37.416Z,72416.78
2022-08-04T05:36:41.296Z,72418.78
2022-08-04T05:37:18.170Z,72414.78
2022-08-04T05:38:01.350Z,72418.78
2022-08-04T05:38:36.672Z,72422.75
2022-08-04T05:39:16.114Z,72416.78
2022-08-04T05:39:53.584Z,72418.78
2022-08-04T05:40:26.944Z,72420.78
2022-08-04T05:41:02.577Z,72422.75
2022-08-04T05:41:45.194Z,72424.75
2022-08-04T05:42:21.194Z,72418.78
2022-08-04T05:42:56.889Z,72420.78
2022-08-04T05:43:29.790Z,72418.78
2022-08-04T05:44:05.387Z,72422.75
2022-08-04T05:44:38.370Z,72418.78
2022-08-04T05:45:10.776Z,72426.75
2022-08-04T05:45:48.416Z,72422.75
2022-08-04T05:46:20.871Z,72420.78
2022-08-04T05:46:56.203Z,72420.78
2022-08-04T05:47:31.543Z,72426.75
2022-08-04T05:48:04.788Z,72422.75
2022-08-04T05:48:40.787Z,72422.75
2022-08-04T05:49:19.366Z,72422.75
2022-08-04T05:50:01.738Z,72422.75
2022-08-04T05:50:37.918Z,72426.75
2022-08-04T05:51:11.156Z,72430.75
2022-08-04T05:51:46.758Z,72424.75
2022-08-04T05:52:21.915Z,72426.75
2022-08-04T05:52:54.453Z,72426.75
2022-08-04T05:53:37.458Z,72426.75
2022-08-04T05:54:10.515Z,72426.75
2022-08-04T05:54:45.533Z,72422.75
2022-08-04T05:55:48.686Z,72430.75
2022-08-04T05:56:15.510Z,72430.75
2022-08-04T05:56:48.512Z,72432.75
2022-08-04T05:57:21.196Z,72430.75
2022-08-04T05:57:56.994Z,72428.75
2022-08-04T05:58:30.713Z,72434.75
2022-08-04T05:59:03.863Z,72434.75
2022-08-04T05:59:42.907Z,72436.72
2022-08-04T06:00:39.032Z,72430.75
2022-08-04T06:01:14.103Z,72434.75
2022-08-04T06:01:55.606Z,72436.72
2022-08-04T06:02:30.967Z,72432.75
2022-08-04T06:03:06.838Z,72432.75
2022-08-04T06:03:40.176Z,72430.75
2022-08-04T06:04:15.966Z,72428.75
2022-08-04T06:04:51.035Z,72428.75
2022-08-04T06:05:26.739Z,72422.75
2022-08-04T06:05:59.387Z,72426.75
2022-08-04T06:06:32.255Z,72432.75
2022-08-04T06:07:11.360Z,72430.75
2022-08-04T06:08:11.826Z,72426.75
2022-08-04T06:08:38.822Z,72428.75
2022-08-04T06:09:11.959Z,72424.75
2022-08-04T06:09:44.739Z,72422.75
2022-08-04T06:10:23.085Z,72426.75
2022-08-04T06:11:06.571Z,72438.72
2022-08-04T06:12:00.773Z,72434.75
2022-08-04T06:12:40.478Z,72436.72
2022-08-04T06:13:49.608Z,72438.72
2022-08-04T06:14:12.527Z,72432.75
2022-08-04T06:14:46.627Z,72434.75
2022-08-04T06:15:20.896Z,72430.75
2022-08-04T06:16:01.609Z,72432.75
2022-08-04T06:16:37.960Z,72430.75
2022-08-04T06:18:33.048Z,72430.75
2022-08-04T06:18:34.077Z,72422.75
2022-08-04T06:19:59.347Z,72430.75
2022-08-04T06:20:19.548Z,72434.75
2022-08-04T06:20:59.337Z,72426.75
2022-08-04T06:21:33.693Z,72434.75
2022-08-04T06:22:11.296Z,72434.75
2022-08-04T06:22:49.135Z,72436.72
2022-08-04T06:23:23.937Z,72430.75
2022-08-04T06:24:02.362Z,72428.75
2022-08-04T06:24:41.009Z,72430.75
2022-08-04T06:25:18.011Z,72426.75
2022-08-04T06:25:52.243Z,72428.75
2022-08-04T06:26:28.410Z,72422.75
2022-08-04T06:27:01.496Z,72418.78
2022-08-04T06:27:33.928Z,72430.75
2022-08-04T06:28:09.821Z,72422.75
2022-08-04T06:28:42.306Z,72428.75
2022-08-04T06:29:20.751Z,72422.75
2022-08-04T06:29:56.217Z,72424.75
2022-08-04T06:30:29.411Z,72432.75
2022-08-04T06:32:28.202Z,72438.72
2022-08-04T06:32:30.239Z,72430.75
2022-08-04T06:33:03.814Z,72434.75
2022-08-04T06:33:54.322Z,72434.75
2022-08-04T06:34:28.047Z,72430.75
2022-08-04T06:35:04.875Z,72434.75
2022-08-04T06:35:37.330Z,72442.72
2022-08-04T06:36:14.250Z,72438.72
2022-08-04T06:36:48.085Z,72434.75
2022-08-04T06:37:42.674Z,72438.72
2022-08-04T06:38:21.306Z,72434.75
2022-08-04T06:38:59.197Z,72436.72
2022-08-04T06:39:32.085Z,72438.72
2022-08-04T06:40:31.318Z,72442.72
2022-08-04T06:41:03.824Z,72438.72
2022-08-04T06:41:55.257Z,72438.72
2022-08-04T06:42:31.935Z,72446.72
2022-08-04T06:43:09.131Z,72444.72
2022-08-04T06:43:42.908Z,72444.72
2022-08-04T06:44:16.556Z,72442.72
2022-08-04T06:44:53.189Z,72442.72
2022-08-04T06:45:26.036Z,72440.72
2022-08-04T06:46:03.047Z,72446.72
2022-08-04T06:46:37.561Z,72450.72
2022-08-04T06:47:18.700Z,72448.72
2022-08-04T06:47:51.631Z,72446.72
2022-08-04T06:48:33.321Z,72448.72
2022-08-04T06:49:06.670Z,72446.72
2022-08-04T06:49:55.078Z,72446.72
2022-08-04T06:51:25.592Z,72442.72
2022-08-04T06:51:38.029Z,72444.72
2022-08-04T06:52:21.654Z,72442.72
2022-08-04T06:52:56.682Z,72450.72
2022-08-04T06:53:31.766Z,72446.72
2022-08-04T06:54:04.360Z,72446.72
2022-08-04T06:54:36.750Z,72452.69
2022-08-04T06:55:13.552Z,72450.72
2022-08-04T06:55:47.639Z,72448.72
2022-08-04T06:56:20.551Z,72442.72
2022-08-04T06:56:56.556Z,72440.72
2022-08-04T06:57:30.840Z,72442.72
2022-08-04T06:58:03.785Z,72442.72
2022-08-04T06:58:39.303Z,72448.72
2022-08-04T06:59:12.981Z,72444.72
2022-08-04T06:59:45.771Z,72438.72
2022-08-04T07:00:21.026Z,72444.72
2022-08-04T07:00:54.783Z,72444.72
2022-08-04T07:01:28.688Z,72450.72
2022-08-04T07:02:04.413Z,72444.72
2022-08-04T07:02:40.498Z,72446.72
2022-08-04T07:03:13.120Z,72454.69
2022-08-04T07:03:50.620Z,72452.69
2022-08-04T07:04:23.482Z,72458.69
2022-08-04T07:04:56.187Z,72458.69
2022-08-04T07:05:31.843Z,72458.69
2022-08-04T07:06:06.069Z,72452.69
2022-08-04T07:06:49.261Z,72452.69
2022-08-04T07:07:33.927Z,72452.69
2022-08-04T07:08:16.553Z,72454.69
2022-08-04T07:08:49.875Z,72450.72
2022-08-04T07:09:22.379Z,72448.72
2022-08-04T07:09:57.395Z,72452.69
2022-08-04T07:10:31.056Z,72454.69
2022-08-04T07:11:06.695Z,72450.72
2022-08-04T07:11:44.623Z,72456.69
2022-08-04T07:12:21.733Z,72454.69
2022-08-04T07:12:54.370Z,72450.72
2022-08-04T07:13:30.423Z,72454.69
2022-08-04T07:14:03.737Z,72448.72
2022-08-04T07:14:36.681Z,72446.72
2022-08-04T07:15:14.356Z,72450.72
2022-08-04T07:15:48.132Z,72450.72
2022-08-04T07:16:30.569Z,72450.72
2022-08-04T07:17:08.102Z,72446.72
2022-08-04T07:17:42.331Z,72452.69
2022-08-04T07:18:14.867Z,72450.72
2022-08-04T07:18:50.043Z,72450.72
2022-08-04T07:19:22.403Z,72448.72
2022-08-04T07:19:55.039Z,72450.72
2022-08-04T07:20:34.508Z,72452.69
2022-08-04T07:21:08.506Z,72452.69
2022-08-04T07:21:41.065Z,72450.72
2022-08-04T07:22:36.242Z,72444.72
2022-08-04T07:23:09.126Z,72450.72
2022-08-04T07:23:48.574Z,72446.72
2022-08-04T07:24:21.007Z,72450.72
2022-08-04T07:24:58.305Z,72450.72
2022-08-04T07:25:57.257Z,72454.69
2022-08-04T07:26:30.768Z,72458.69
2022-08-04T07:27:04.037Z,72450.72
2022-08-04T07:27:48.202Z,72454.69
2022-08-04T07:28:22.603Z,72456.69
2022-08-04T07:28:59.711Z,72460.69
2022-08-04T07:29:32.281Z,72454.69
2022-08-04T07:30:06.582Z,72446.72
2022-08-04T07:30:42.839Z,72446.72
2022-08-04T07:31:34.492Z,72450.72
2022-08-04T07:32:11.190Z,72454.69
2022-08-04T07:32:46.286Z,72448.72
2022-08-04T07:33:22.105Z,72454.69
2022-08-04T07:34:17.208Z,72454.69
2022-08-04T07:34:52.630Z,72454.69
2022-08-04T07:36:05.228Z,72442.72
2022-08-04T07:36:21.434Z,72446.72
2022-08-04T07:37:01.747Z,72450.72
2022-08-04T07:37:40.028Z,72450.72
2022-08-04T07:38:13.351Z,72454.69
2022-08-04T07:38:53.956Z,72454.69
2022-08-04T07:39:31.528Z,72450.72
2022-08-04T07:40:22.996Z,72446.72
2022-08-04T07:40:55.938Z,72442.72
2022-08-04T07:41:38.298Z,72442.72
2022-08-04T07:42:10.922Z,72438.72
2022-08-04T07:42:46.961Z,72446.72
2022-08-04T07:43:19.555Z,72442.72
2022-08-04T07:43:52.288Z,72444.72
2022-08-04T07:44:27.843Z,72448.72
2022-08-04T07:45:00.891Z,72444.72
2022-08-04T07:45:33.513Z,72450.72
2022-08-04T07:46:08.571Z,72446.72
2022-08-04T07:46:41.063Z,72450.72
2022-08-04T07:47:16.466Z,72446.72
2022-08-04T07:48:04.816Z,72448.72
2022-08-04T07:48:38.901Z,72446.72
2022-08-04T07:49:13.944Z,72454.69
2022-08-04T07:50:08.180Z,72452.69
2022-08-04T07:50:45.983Z,72448.72
2022-08-04T07:51:18.592Z,72452.69
2022-08-04T07:51:51.072Z,72450.72
2022-08-04T07:52:26.929Z,72450.72
2022-08-04T07:53:53.325Z,72454.69
2022-08-04T07:53:57.845Z,72456.69
2022-08-04T07:54:30.521Z,72454.69
2022-08-04T07:55:03.223Z,72450.72
2022-08-04T07:55:38.260Z,72454.69
2022-08-04T07:56:11.502Z,72452.69
2022-08-04T07:56:44.253Z,72452.69
2022-08-04T07:57:39.821Z,72450.72
2022-08-04T07:58:13.275Z,72446.72
2022-08-04T07:58:48.523Z,72450.72
2022-08-04T07:59:22.908Z,72446.72
2022-08-04T07:59:55.315Z,72444.72
2022-08-04T08:00:30.404Z,72440.72
2022-08-04T08:01:02.799Z,72438.72
2022-08-04T08:01:36.384Z,72432.75
2022-08-04T08:02:11.786Z,72438.72
2022-08-04T08:02:46.425Z,72440.72
2022-08-04T08:03:21.910Z,72442.72
2022-08-04T08:03:59.418Z,72450.72
2022-08-04T08:04:32.529Z,72450.72
2022-08-04T08:05:08.275Z,72452.69
2022-08-04T08:05:54.716Z,72456.69
2022-08-04T08:06:43.184Z,72462.69
2022-08-04T08:07:15.918Z,72460.69
2022-08-04T08:07:54.562Z,72460.69
2022-08-04T08:08:27.430Z,72464.69
2022-08-04T08:09:13.510Z,72460.69
2022-08-04T08:09:46.848Z,72466.66
2022-08-04T08:10:19.594Z,72462.69
2022-08-04T08:10:55.156Z,72466.66
2022-08-04T08:12:37.143Z,72462.69
2022-08-04T08:12:37.805Z,72466.66
2022-08-04T08:13:16.146Z,72462.69
2022-08-04T08:13:51.397Z,72466.66
2022-08-04T08:14:24.000Z,72462.69
2022-08-04T08:14:58.151Z,72466.66
2022-08-04T08:15:33.510Z,72466.66
2022-08-04T08:16:06.606Z,72462.69
2022-08-04T08:16:39.186Z,72464.69
2022-08-04T08:17:14.269Z,72466.66